Time;durP1;ratioP1;P1;durP2;ratioP2;P2;SDS_P1;SDS_P2;PMS_P1;PMS_P2;Temp;Humidity;BMP_temperature;BMP_pressure;BME280_temperature;BME280_humidity;BME280_pressure;Samples;Min_cycle;Max_cycle;Signal;HPM_P1;HPM_P2
2022/07/01 00:01:11;;;;;;;22.10;17.70;;;;;;;21.51;71.33;98220.64;219388;1276;22531;-72
2022/07/01 00:06:14;;;;;;;19.70;16.50;;;;;;;21.42;71.63;98229.55;219988;1276;22775;-71
2022/07/01 00:11:26;;;;;;;21.60;17.20;;;;;;;21.27;72.18;98233.77;219749;1276;22550;-71
2022/07/01 00:16:29;;;;;;;19.60;17.60;;;;;;;21.09;72.29;98222.45;218960;1276;811721;-71
2022/07/01 00:21:33;;;;;;;19.50;17.40;;;;;;;20.92;72.69;98214.63;219158;1276;22534;-70
2022/07/01 00:26:35;;;;;;;21.70;17.90;;;;;;;20.77;73.06;98211.80;219436;1276;22567;-70
2022/07/01 00:31:41;;;;;;;20.20;17.20;;;;;;;20.60;73.24;98209.30;219167;1276;24224;-70
2022/07/01 00:36:46;;;;;;;20.20;17.70;;;;;;;20.44;73.75;98210.13;219157;1276;22549;-71
2022/07/01 00:41:52;;;;;;;21.70;18.80;;;;;;;20.30;74.31;98205.11;219674;1276;24503;-71
2022/07/01 00:47:03;;;;;;;20.90;18.80;;;;;;;20.20;75.23;98205.20;219761;1276;24318;-71
2022/07/01 00:52:08;;;;;;;25.30;20.80;;;;;;;20.14;75.99;98206.27;219510;1276;23438;-70
2022/07/01 00:57:14;;;;;;;23.40;21.10;;;;;;;20.10;76.56;98203.88;219131;1276;25432;-71
2022/07/01 01:02:31;;;;;;;25.20;22.20;;;;;;;20.08;77.74;98196.47;219872;1276;22690;-71
2022/07/01 01:07:36;;;;;;;24.50;21.90;;;;;;;20.11;78.68;98197.74;219852;1276;22546;-70
2022/07/01 01:12:42;;;;;;;25.70;22.90;;;;;;;20.14;79.08;98202.46;219100;1276;22708;-72
2022/07/01 01:17:48;;;;;;;24.10;21.70;;;;;;;20.14;79.01;98207.45;219658;1276;24315;-70
2022/07/01 01:22:54;;;;;;;23.60;21.30;;;;;;;20.09;79.02;98214.05;219883;1276;24296;-70
2022/07/01 01:28:09;;;;;;;25.70;21.70;;;;;;;20.05;79.04;98216.61;219676;1276;23021;-70
2022/07/01 01:33:31;;;;;;;26.10;21.70;;;;;;;19.99;79.13;98212.50;219799;1276;24218;-71
2022/07/01 01:38:52;;;;;;;25.50;22.70;;;;;;;19.97;79.30;98204.30;219795;1276;22560;-69
2022/07/01 01:44:02;;;;;;;25.80;23.20;;;;;;;19.95;79.66;98207.93;219249;1276;22547;-71
2022/07/01 01:49:05;;;;;;;25.10;22.60;;;;;;;19.94;79.95;98218.48;219179;1276;25555;-71
2022/07/01 01:54:13;;;;;;;24.60;21.40;;;;;;;19.92;80.01;98230.95;219991;1276;22660;-71
2022/07/01 01:59:30;;;;;;;25.00;22.40;;;;;;;19.89;79.99;98229.82;219686;1276;22582;-69
2022/07/01 02:04:35;;;;;;;23.90;21.40;;;;;;;19.85;79.98;98226.72;219767;1276;23290;-70
2022/07/01 02:09:38;;;;;;;25.60;20.50;;;;;;;19.81;80.15;98222.98;219809;1276;22534;-72
2022/07/01 02:14:40;;;;;;;23.10;20.10;;;;;;;19.72;80.13;98220.58;219703;1276;22700;-70
2022/07/01 02:19:59;;;;;;;22.60;20.30;;;;;;;19.64;80.21;98231.16;219737;1276;24323;-69
2022/07/01 02:25:05;;;;;;;22.90;20.40;;;;;;;19.58;80.14;98226.17;219873;1276;22688;-71
2022/07/01 02:30:10;;;;;;;22.80;20.30;;;;;;;19.54;80.25;98223.98;219734;1276;22853;-71
2022/07/01 02:35:13;;;;;;;24.50;21.90;;;;;;;19.51;80.36;98221.54;219661;1276;23231;-71
2022/07/01 02:40:27;;;;;;;25.20;22.70;;;;;;;19.48;80.98;98219.15;219250;1276;22541;-70
2022/07/01 02:45:30;;;;;;;25.60;22.40;;;;;;;19.44;81.34;98220.13;219707;1275;24365;-71
2022/07/01 02:50:32;;;;;;;25.10;22.50;;;;;;;19.41;81.41;98223.07;219922;1276;22644;-71
2022/07/01 02:55:35;;;;;;;24.80;22.20;;;;;;;19.38;81.66;98221.30;219797;1276;22712;-70
2022/07/01 03:00:59;;;;;;;22.50;19.80;;;;;;;19.35;81.53;98216.59;219364;1277;26464;-70
2022/07/01 03:06:02;;;;;;;23.80;19.50;;;;;;;19.30;81.37;98220.46;219260;1276;25342;-70
2022/07/01 03:11:07;;;;;;;22.50;19.20;;;;;;;19.27;81.03;98219.25;219809;1276;25488;-70
2022/07/01 03:16:30;;;;;;;23.30;20.10;;;;;;;19.28;81.09;98224.47;219744;1276;22649;-71
2022/07/01 03:21:43;;;;;;;22.20;19.90;;;;;;;19.34;81.32;98228.52;219749;1276;25371;-71
2022/07/01 03:26:45;;;;;;;21.00;18.80;;;;;;;19.51;81.53;98238.62;219708;1276;22643;-71
2022/07/01 03:31:51;;;;;;;21.20;19.00;;;;;;;19.81;81.61;98244.95;219589;1279;25498;-70
2022/07/01 03:37:00;;;;;;;24.40;18.60;;;;;;;20.18;81.42;98246.19;219869;1276;22574;-70
2022/07/01 03:42:05;;;;;;;20.20;16.90;;;;;;;20.62;80.91;98258.95;219752;1276;22587;-70
2022/07/01 03:47:25;;;;;;;18.70;16.80;;;;;;;21.04;79.95;98275.68;219639;1276;26321;-70
2022/07/01 03:52:28;;;;;;;23.00;20.60;;;;;;;21.39;79.01;98290.23;219894;1276;22538;-71
2022/07/01 03:57:30;;;;;;;21.00;18.80;;;;;;;21.68;78.34;98291.98;219764;1276;26402;-71
2022/07/01 04:02:32;;;;;;;20.80;18.60;;;;;;;22.11;77.97;98292.82;219723;1276;22587;-71
2022/07/01 04:07:35;;;;;;;21.40;19.30;;;;;;;22.46;76.30;98303.48;219916;1276;22688;-71
2022/07/01 04:12:38;;;;;;;21.00;18.80;;;;;;;22.75;75.96;98304.22;219783;1276;22628;-72
2022/07/01 04:17:41;;;;;;;21.90;19.60;;;;;;;22.98;75.13;98299.27;219187;1276;22639;-72
2022/07/01 04:22:44;;;;;;;21.10;18.90;;;;;;;23.14;75.07;98297.56;219647;1276;22806;-70
2022/07/01 04:27:49;;;;;;;20.90;18.90;;;;;;;23.20;74.24;98302.44;219771;1276;22566;-71
2022/07/01 04:32:57;;;;;;;20.00;17.60;;;;;;;22.94;73.38;98302.92;219740;1276;22698;-71
2022/07/01 04:38:02;;;;;;;19.90;17.80;;;;;;;22.68;73.66;98305.66;219772;1276;23325;-70
2022/07/01 04:43:08;;;;;;;18.80;16.90;;;;;;;22.55;74.02;98302.16;219766;1276;23310;-71
2022/07/01 04:48:22;;;;;;;19.30;17.20;;;;;;;22.52;74.16;98301.20;219847;1276;22536;-71
2022/07/01 04:53:28;;;;;;;19.30;16.10;;;;;;;22.54;74.52;98296.99;219675;1276;22562;-71
2022/07/01 04:58:33;;;;;;;19.10;17.30;;;;;;;22.73;74.61;98290.01;219895;1276;22566;-70
2022/07/01 05:03:39;;;;;;;19.50;17.40;;;;;;;22.95;74.57;98290.90;219710;1276;22560;-71
2022/07/01 05:08:48;;;;;;;17.30;15.70;;;;;;;23.16;74.39;98292.73;219961;1276;25301;-71
2022/07/01 05:13:56;;;;;;;16.60;14.90;;;;;;;23.40;74.00;98290.39;219795;1276;24297;-72
2022/07/01 05:24:35;;;;;;;15.60;14.20;;;;;;;23.90;72.86;98294.89;219179;1276;22538;-71
2022/07/01 05:29:41;;;;;;;16.50;14.80;;;;;;;24.14;72.31;98296.94;219928;1276;24354;-71
2022/07/01 05:34:44;;;;;;;17.00;15.40;;;;;;;24.39;71.64;98291.38;219997;1276;23034;-71
2022/07/01 05:39:47;;;;;;;16.70;15.00;;;;;;;24.63;71.31;98296.66;219506;1276;22635;-71
2022/07/01 05:44:53;;;;;;;16.80;15.00;;;;;;;24.84;70.62;98294.13;218822;1276;24267;-70
2022/07/01 05:49:55;;;;;;;15.40;14.00;;;;;;;25.03;69.51;98292.50;220224;1276;22545;-71
2022/07/01 05:54:58;;;;;;;15.20;13.70;;;;;;;25.16;68.04;98291.42;220187;1278;25322;-70
2022/07/01 06:00:04;;;;;;;16.40;13.90;;;;;;;25.30;67.29;98283.86;220128;1276;22603;-71
2022/07/01 06:05:13;;;;;;;16.60;13.70;;;;;;;25.46;66.74;98286.69;220140;1276;22602;-71
2022/07/01 06:10:15;;;;;;;17.90;13.30;;;;;;;25.66;66.37;98288.60;220478;1276;25382;-72
2022/07/01 06:15:18;;;;;;;13.20;11.90;;;;;;;25.81;65.34;98283.50;220497;1277;22568;-71
2022/07/01 06:20:20;;;;;;;14.40;12.20;;;;;;;26.04;65.13;98285.55;220550;1276;22578;-71
2022/07/01 06:25:23;;;;;;;14.60;13.10;;;;;;;26.25;63.81;98295.95;220322;1276;22675;-70
2022/07/01 06:30:28;;;;;;;14.00;12.50;;;;;;;26.40;62.98;98299.20;220148;1276;22681;-71
2022/07/01 06:35:51;;;;;;;14.20;12.70;;;;;;;26.64;62.97;98301.48;220476;1276;22561;-71
2022/07/01 06:46:15;;;;;;;13.40;12.10;;;;;;;27.13;62.15;98294.05;220249;1276;22590;-71
2022/07/01 06:51:18;;;;;;;12.90;11.30;;;;;;;27.38;61.25;98287.53;220372;1276;22562;-71
2022/07/01 06:56:21;;;;;;;13.60;11.80;;;;;;;27.65;60.44;98295.52;220113;1276;23070;-72
2022/07/01 07:01:29;;;;;;;14.10;12.70;;;;;;;27.88;59.07;98304.37;220240;1276;22547;-71
2022/07/01 07:06:32;;;;;;;13.70;12.30;;;;;;;28.07;58.00;98306.30;220355;1278;22572;-71
2022/07/01 07:11:35;;;;;;;13.70;12.40;;;;;;;28.25;58.46;98311.76;220305;1276;22701;-71
2022/07/01 07:16:37;;;;;;;13.70;12.30;;;;;;;28.52;57.89;98315.85;220175;1276;22580;-71
2022/07/01 07:21:39;;;;;;;15.00;12.30;;;;;;;28.78;57.63;98320.45;220132;1276;25376;-72
2022/07/01 07:26:49;;;;;;;13.20;11.90;;;;;;;28.99;56.60;98325.64;220072;1276;22692;-71
2022/07/01 07:31:51;;;;;;;12.10;10.90;;;;;;;29.26;55.58;98327.50;220212;1276;23596;-71
2022/07/01 07:36:53;;;;;;;12.50;11.40;;;;;;;29.50;54.49;98321.78;220054;1278;22553;-71
2022/07/01 07:41:56;;;;;;;12.50;11.30;;;;;;;29.66;53.64;98326.86;220160;1276;22562;-70
2022/07/01 07:46:59;;;;;;;11.90;10.70;;;;;;;29.86;53.23;98319.27;220239;1277;22550;-70
2022/07/01 07:52:01;;;;;;;11.90;10.60;;;;;;;30.01;52.47;98318.94;220453;1276;22527;-71
2022/07/01 07:57:04;;;;;;;12.50;11.40;;;;;;;30.14;51.82;98322.00;220505;1276;22697;-70
2022/07/01 08:02:06;;;;;;;12.30;11.10;;;;;;;30.23;50.89;98324.39;220287;1276;22534;-70
2022/07/01 08:07:09;;;;;;;12.40;11.30;;;;;;;30.31;50.32;98326.23;220399;1276;23622;-70
2022/07/01 08:12:12;;;;;;;12.40;11.10;;;;;;;30.42;49.94;98330.95;220264;1276;22765;-70
2022/07/01 08:17:18;;;;;;;12.20;11.10;;;;;;;30.58;50.31;98330.64;220197;1277;22554;-71
2022/07/01 08:22:20;;;;;;;12.90;9.90;;;;;;;30.80;50.09;98330.92;220207;1276;22566;-70
2022/07/01 08:27:22;;;;;;;11.50;10.40;;;;;;;31.07;49.85;98330.31;220152;1276;25228;-70
2022/07/01 08:32:26;;;;;;;13.30;9.70;;;;;;;31.30;49.02;98326.95;220146;1276;25271;-70
2022/07/01 08:37:28;;;;;;;10.70;9.60;;;;;;;31.51;48.55;98325.70;219115;1276;26505;-70
2022/07/01 08:42:30;;;;;;;10.20;9.20;;;;;;;31.73;46.84;98330.70;218892;1276;24239;-70
2022/07/01 08:47:32;;;;;;;10.60;8.90;;;;;;;31.81;46.37;98333.05;218645;1276;22745;-70
2022/07/01 08:52:48;;;;;;;10.90;9.70;;;;;;;31.93;46.14;98328.17;220317;1277;25541;-71
2022/07/01 08:58:10;;;;;;;16.70;12.20;;;;;;;32.02;46.08;98327.65;219927;1276;22769;-70
2022/07/01 09:03:12;;;;;;;9.20;8.40;;;;;;;32.24;45.53;98325.06;220078;1276;22550;-71
2022/07/01 09:08:15;;;;;;;11.40;10.30;;;;;;;32.51;45.10;98326.00;220351;1277;24432;-72
2022/07/01 09:13:18;;;;;;;11.00;8.40;;;;;;;32.72;43.76;98323.24;220197;1276;22680;-69
2022/07/01 09:18:20;;;;;;;10.40;9.10;;;;;;;32.79;42.27;98325.86;220208;1277;25238;-70
2022/07/01 09:23:22;;;;;;;11.20;9.70;;;;;;;32.69;42.39;98326.33;220212;1276;22697;-70
2022/07/01 09:28:26;;;;;;;12.60;9.90;;;;;;;32.65;43.04;98322.73;220279;1278;25422;-71
2022/07/01 09:33:29;;;;;;;10.50;9.50;;;;;;;32.68;43.56;98321.38;220338;1278;22618;-70
2022/07/01 09:38:32;;;;;;;10.80;9.70;;;;;;;32.89;43.70;98320.27;220146;1278;25253;-70
2022/07/01 09:43:35;;;;;;;11.90;10.30;;;;;;;32.95;42.72;98319.98;220297;1278;22562;-69
2022/07/01 09:48:37;;;;;;;10.60;9.60;;;;;;;33.07;43.17;98319.30;218666;1278;24249;-69
2022/07/01 09:53:40;;;;;;;8.00;7.30;;;;;;;33.19;41.59;98322.49;218426;1278;25329;-70
2022/07/01 09:58:43;;;;;;;7.50;6.80;;;;;;;33.37;42.07;98322.81;218565;1278;22547;-69
2022/07/01 10:03:51;;;;;;;8.80;6.70;;;;;;;33.58;40.79;98319.55;218510;1278;22544;-70
2022/07/01 10:09:21;;;;;;;7.80;6.10;;;;;;;33.75;39.51;98321.60;220331;1278;25509;-69
2022/07/01 10:14:24;;;;;;;6.90;6.00;;;;;;;33.85;38.72;98318.99;218896;1278;25427;-70
2022/07/01 10:19:28;;;;;;;10.50;7.40;;;;;;;33.99;37.87;98318.95;220267;1277;22830;-70
2022/07/01 10:24:30;;;;;;;7.60;6.70;;;;;;;33.93;38.59;98318.27;220259;1277;24667;-69
2022/07/01 10:29:34;;;;;;;7.80;7.00;;;;;;;33.71;39.42;98313.73;220274;1278;22593;-69
2022/07/01 10:34:41;;;;;;;6.90;6.20;;;;;;;33.82;39.15;98310.00;218885;1278;24033;-70
2022/07/01 10:39:53;;;;;;;;;;;;;;;34.05;38.00;98309.02;219000;1278;22549;-70
2022/07/01 10:45:05;;;;;;;10.40;9.30;;;;;;;34.10;37.61;98303.63;218741;1277;22687;-69
2022/07/01 10:50:10;;;;;;;10.60;8.40;;;;;;;34.30;36.99;98300.22;218660;1278;25324;-69
2022/07/01 10:55:20;;;;;;;8.50;7.60;;;;;;;34.40;37.30;98290.87;218952;1277;24377;-70
2022/07/01 11:00:44;;;;;;;6.50;5.90;;;;;;;34.54;37.73;98289.27;218815;1277;26205;-69
2022/07/01 11:05:50;;;;;;;6.50;5.70;;;;;;;34.79;36.42;98287.63;218931;1277;22557;-69
2022/07/01 11:10:57;;;;;;;7.80;5.60;;;;;;;34.83;34.96;98287.23;218792;1278;25725;-69
2022/07/01 11:16:00;;;;;;;6.00;5.50;;;;;;;34.85;33.29;98284.39;218818;1278;24527;-70
2022/07/01 11:21:08;;;;;;;8.00;7.10;;;;;;;34.83;34.34;98278.43;218806;1278;25459;-70
2022/07/01 11:26:24;;;;;;;19.00;17.20;;;;;;;35.00;34.56;98266.63;220170;1278;25422;-70
2022/07/01 11:31:31;;;;;;;6.70;5.00;;;;;;;35.05;32.79;98257.53;220380;1277;22618;-69
2022/07/01 11:41:57;;;;;;;6.80;6.20;;;;;;;35.19;32.78;98256.11;220167;1276;22754;-73
2022/07/01 11:47:02;;;;;;;6.30;5.70;;;;;;;35.21;32.11;98256.65;220015;1276;24053;-73
2022/07/01 11:52:06;;;;;;;6.60;6.00;;;;;;;35.20;31.91;98249.08;220135;1277;25256;-71
2022/07/01 11:57:13;;;;;;;6.10;5.40;;;;;;;35.14;31.79;98251.48;220143;1276;24811;-72
2022/07/01 12:02:21;;;;;;;6.00;5.40;;;;;;;35.20;32.51;98257.19;220139;1278;22610;-71
2022/07/01 12:07:25;;;;;;;8.10;5.70;;;;;;;35.24;30.75;98253.56;220497;1277;24300;-72
2022/07/01 12:12:28;;;;;;;6.50;5.80;;;;;;;35.22;31.08;98264.58;220234;1276;22601;-71
2022/07/01 12:17:30;;;;;;;7.20;6.10;;;;;;;35.25;31.71;98266.48;219921;1277;498504;-71
2022/07/01 12:22:39;;;;;;;8.80;6.80;;;;;;;35.33;31.57;98276.95;220209;1276;23198;-71
2022/07/01 12:27:43;;;;;;;9.20;6.70;;;;;;;35.40;31.61;98289.52;220081;1277;25365;-71
2022/07/01 12:32:45;;;;;;;6.90;6.20;;;;;;;35.51;32.02;98283.98;220188;1277;22597;-71
2022/07/01 12:37:55;;;;;;;8.20;7.20;;;;;;;35.65;32.04;98271.08;220229;1276;23285;-72
2022/07/01 12:42:59;;;;;;;7.40;6.70;;;;;;;35.68;31.39;98271.99;220122;1277;22569;-72
2022/07/01 12:48:02;;;;;;;7.30;6.70;;;;;;;35.62;31.18;98265.88;220133;1276;22580;-72
2022/07/01 12:53:07;;;;;;;8.20;7.40;;;;;;;35.68;31.24;98268.30;220264;1276;22701;-71
2022/07/01 12:58:12;;;;;;;7.90;7.20;;;;;;;35.81;30.51;98267.23;220339;1277;22607;-72
2022/07/01 13:03:22;;;;;;;7.40;6.80;;;;;;;35.88;30.50;98256.55;220277;1276;22625;-72
2022/07/01 13:08:24;;;;;;;8.40;7.60;;;;;;;36.06;30.63;98249.21;220472;1276;22618;-73
2022/07/01 13:13:26;;;;;;;8.10;7.30;;;;;;;36.14;31.10;98248.57;220381;1276;22547;-73
2022/07/01 13:18:29;;;;;;;8.40;7.60;;;;;;;36.17;31.02;98240.31;220352;1277;25289;-72
2022/07/01 13:23:31;;;;;;;7.70;7.10;;;;;;;36.18;31.59;98232.95;220107;1276;24422;-71
2022/07/01 13:28:36;;;;;;;8.20;7.30;;;;;;;36.32;31.71;98229.58;220339;1276;22558;-72
2022/07/01 13:33:39;;;;;;;8.30;7.50;;;;;;;36.45;30.99;98220.70;220096;1277;22656;-72
2022/07/01 13:38:48;;;;;;;8.40;7.70;;;;;;;36.43;30.12;98220.10;220370;1276;22587;-72
2022/07/01 13:44:06;;;;;;;9.70;8.90;;;;;;;36.15;30.89;98224.46;220509;1276;22595;-72
2022/07/01 13:49:08;;;;;;;9.00;8.30;;;;;;;36.02;31.93;98217.15;220337;1276;22589;-71
2022/07/01 13:54:10;;;;;;;9.20;8.30;;;;;;;36.16;32.14;98216.52;220269;1276;22563;-72
2022/07/01 13:59:12;;;;;;;11.00;8.70;;;;;;;36.20;31.23;98215.79;220313;1276;22573;-72
2022/07/01 14:04:15;;;;;;;9.50;8.60;;;;;;;36.11;31.92;98214.36;220226;1276;22562;-74
2022/07/01 14:09:17;;;;;;;9.00;8.20;;;;;;;36.22;32.09;98213.10;220003;1277;22586;-71
2022/07/01 14:14:19;;;;;;;9.10;8.30;;;;;;;36.33;31.69;98213.13;220155;1276;22724;-71
2022/07/01 14:19:24;;;;;;;9.90;9.00;;;;;;;36.40;31.96;98214.21;219333;1277;24237;-70
2022/07/01 14:24:27;;;;;;;9.00;8.20;;;;;;;36.46;32.05;98208.70;220082;1276;22553;-69
2022/07/01 14:29:29;;;;;;;9.10;8.40;;;;;;;36.40;31.83;98204.08;219994;1276;24232;-70
2022/07/01 14:34:43;;;;;;;9.30;8.40;;;;;;;36.46;31.67;98212.05;219382;1277;24381;-71
2022/07/01 14:40:06;;;;;;;9.70;8.80;;;;;;;36.37;30.66;98210.80;220102;1276;22596;-71
2022/07/01 14:45:10;;;;;;;9.80;9.00;;;;;;;36.20;31.10;98211.04;219262;1276;22547;-70
2022/07/01 14:50:12;;;;;;;10.30;9.30;;;;;;;36.17;31.59;98215.78;220004;1276;22951;-70
2022/07/01 14:55:15;;;;;;;10.60;9.70;;;;;;;36.16;32.17;98207.45;219481;1276;22550;-71
2022/07/01 15:00:20;;;;;;;11.10;10.20;;;;;;;36.16;32.43;98216.79;219836;1276;24410;-71
2022/07/01 15:05:25;;;;;;;10.10;9.20;;;;;;;36.06;32.37;98218.87;219973;1276;24278;-71
2022/07/01 15:10:27;;;;;;;9.80;9.00;;;;;;;36.06;32.63;98226.21;219129;1276;22539;-71
2022/07/01 15:15:31;;;;;;;10.00;9.10;;;;;;;36.08;32.17;98221.48;220004;1276;23426;-70
2022/07/01 15:20:33;;;;;;;10.60;9.60;;;;;;;35.92;32.06;98222.90;219801;1276;22578;-70
2022/07/01 15:25:35;;;;;;;10.30;9.20;;;;;;;35.55;32.71;98220.40;219943;1276;22580;-71
2022/07/01 15:30:42;;;;;;;9.90;9.00;;;;;;;35.29;33.28;98215.09;220029;1276;24234;-71
2022/07/01 15:35:44;;;;;;;10.80;9.80;;;;;;;35.25;33.50;98214.73;219947;1276;22547;-70
2022/07/01 15:40:46;;;;;;;9.70;8.80;;;;;;;35.42;33.83;98222.20;219231;1277;22616;-70
2022/07/01 15:45:48;;;;;;;10.30;9.40;;;;;;;35.64;34.08;98222.48;219175;1276;25369;-71
2022/07/01 15:50:55;;;;;;;10.90;9.90;;;;;;;35.86;33.99;98225.90;219933;1276;25323;-71
2022/07/01 15:55:57;;;;;;;12.60;9.60;;;;;;;35.89;33.94;98221.77;219929;1276;22584;-69
2022/07/01 16:01:00;;;;;;;10.10;9.30;;;;;;;35.90;33.84;98203.40;219090;1276;22638;-70
2022/07/01 16:06:11;;;;;;;10.20;9.20;;;;;;;35.99;33.74;98185.94;219862;1276;26391;-69
2022/07/01 16:11:15;;;;;;;10.40;8.80;;;;;;;36.04;33.72;98195.21;219289;1276;23188;-72
2022/07/01 16:16:26;;;;;;;9.70;8.60;;;;;;;36.20;33.65;98207.08;219339;1276;22646;-71
2022/07/01 16:21:29;;;;;;;9.10;8.30;;;;;;;36.14;33.51;98204.13;219378;1276;22556;-69
2022/07/01 16:26:33;;;;;;;9.60;8.80;;;;;;;35.77;34.09;98211.59;220003;1276;25372;-71
2022/07/01 16:31:36;;;;;;;9.50;8.60;;;;;;;35.38;34.90;98225.33;219894;1276;24285;-70
2022/07/01 16:36:59;;;;;;;15.40;10.10;;;;;;;34.60;36.32;98265.22;219905;1276;22633;-71
2022/07/01 16:42:25;;;;;;;15.20;10.20;;;;;;;32.76;39.41;98261.32;219836;1276;24249;-71
2022/07/01 16:47:32;;;;;;;13.40;9.80;;;;;;;31.19;42.20;98250.60;219773;1276;22565;-71
2022/07/01 16:52:37;;;;;;;17.50;11.40;;;;;;;29.85;45.03;98262.78;219917;1276;22625;-70
2022/07/01 16:57:49;;;;;;;15.00;10.50;;;;;;;28.81;47.36;98336.98;219767;1276;22638;-71
2022/07/01 17:03:02;;;;;;;13.00;11.10;;;;;;;28.03;49.66;98374.36;218983;1276;25363;-70
2022/07/01 17:08:06;;;;;;;13.30;11.80;;;;;;;27.47;51.13;98349.73;219236;1276;25261;-70
2022/07/01 17:13:19;;;;;;;13.10;11.80;;;;;;;27.09;51.85;98364.38;219206;1276;22566;-70
2022/07/01 17:18:35;;;;;;;17.40;12.20;;;;;;;26.79;52.68;98392.16;219891;1276;25406;-72
2022/07/01 17:23:54;;;;;;;15.30;13.30;;;;;;;26.08;55.37;98400.77;219210;1276;25392;-71
2022/07/01 17:29:09;;;;;;;15.00;13.60;;;;;;;25.20;57.60;98406.21;220121;1276;25384;-70
2022/07/01 17:34:15;;;;;;;18.50;16.60;;;;;;;24.49;59.75;98416.11;219455;1276;24288;-71
2022/07/01 17:39:41;;;;;;;16.50;15.10;;;;;;;24.03;61.16;98438.33;220058;1276;24387;-71
2022/07/01 17:45:06;;;;;;;18.10;15.40;;;;;;;23.79;63.97;98500.35;220010;1276;22571;-70
2022/07/01 17:50:09;;;;;;;17.00;14.20;;;;;;;23.71;65.36;98483.98;219932;1276;24348;-70
2022/07/01 17:55:14;;;;;;;15.20;13.70;;;;;;;23.70;66.56;98487.95;219909;1276;22818;-72
2022/07/01 18:00:16;;;;;;;15.40;13.80;;;;;;;23.51;67.92;98468.73;219929;1276;22630;-71
2022/07/01 18:05:19;;;;;;;16.30;14.60;;;;;;;23.02;68.70;98451.07;219765;1276;22760;-71
2022/07/01 18:10:21;;;;;;;15.10;13.60;;;;;;;22.69;70.58;98464.86;220131;1276;22624;-74
2022/07/01 18:15:28;;;;;;;15.60;14.00;;;;;;;22.50;71.24;98444.64;219924;1276;22714;-73
2022/07/01 18:21:01;;;;;;;17.40;13.80;;;;;;;22.29;73.76;98465.10;219856;1276;25696;-72
2022/07/01 18:26:05;;;;;;;13.40;12.00;;;;;;;22.05;74.78;98452.20;220195;1276;26750;-72
2022/07/01 18:31:23;;;;;;;16.30;13.10;;;;;;;21.80;74.98;98451.92;220248;1276;22551;-72
2022/07/01 18:36:31;;;;;;;12.20;10.90;;;;;;;21.54;75.27;98419.59;219822;1276;25313;-72
2022/07/01 18:41:33;;;;;;;11.90;10.80;;;;;;;21.31;76.02;98448.94;219881;1276;22550;-72
2022/07/01 18:46:36;;;;;;;12.10;10.90;;;;;;;21.16;76.26;98484.98;219818;1276;22624;-73
2022/07/01 18:51:38;;;;;;;14.70;13.20;;;;;;;20.91;76.76;98526.45;219819;1276;22573;-72
2022/07/01 18:57:18;;;;;;;18.10;16.20;;;;;;;20.68;77.21;98562.67;219996;1276;23485;-72
2022/07/01 19:02:33;;;;;;;18.00;16.10;;;;;;;20.50;78.73;98558.51;220055;1277;24230;-73
2022/07/01 19:07:38;;;;;;;19.20;17.10;;;;;;;20.38;80.62;98546.23;219820;1276;22771;-74
2022/07/01 19:12:41;;;;;;;19.90;17.50;;;;;;;20.25;81.57;98577.52;219920;1276;22573;-74
2022/07/01 19:17:43;;;;;;;20.70;18.40;;;;;;;20.15;81.92;98611.83;219825;1276;24624;-73
2022/07/01 19:22:48;;;;;;;21.60;18.70;;;;;;;20.05;82.70;98625.83;219858;1276;25348;-74
2022/07/01 19:27:51;;;;;;;19.70;17.60;;;;;;;19.88;83.18;98600.05;219970;1276;22707;-73
2022/07/01 19:32:54;;;;;;;19.90;17.30;;;;;;;19.67;83.76;98653.06;219791;1276;22641;-72
2022/07/01 19:37:59;;;;;;;19.40;17.20;;;;;;;19.41;84.54;98683.77;219783;1276;25441;-72
2022/07/01 19:43:03;;;;;;;16.50;15.00;;;;;;;19.21;84.76;98704.85;219833;1276;22579;-73
2022/07/01 19:48:07;;;;;;;16.80;15.10;;;;;;;19.08;85.02;98732.64;219896;1276;22547;-72
2022/07/01 19:53:09;;;;;;;16.00;14.40;;;;;;;18.96;85.77;98728.89;219743;1276;26091;-73
2022/07/01 19:58:12;;;;;;;12.30;11.10;;;;;;;18.77;86.40;98731.99;219660;1276;22566;-73
2022/07/01 20:03:14;;;;;;;13.10;11.90;;;;;;;18.57;86.62;98710.02;219850;1276;25297;-72
2022/07/01 20:08:17;;;;;;;12.20;11.20;;;;;;;18.40;87.22;98723.40;219838;1276;22572;-71
2022/07/01 20:13:19;;;;;;;12.40;11.20;;;;;;;18.24;87.27;98720.68;219706;1276;22550;-73
2022/07/01 20:18:23;;;;;;;12.70;11.50;;;;;;;18.13;87.13;98752.95;219829;1276;22608;-72
2022/07/01 20:23:27;;;;;;;14.40;13.00;;;;;;;18.06;86.54;98777.28;219965;1276;22562;-72
2022/07/01 20:28:29;;;;;;;12.80;11.60;;;;;;;18.03;86.67;98804.35;219803;1276;24152;-72
2022/07/01 20:33:31;;;;;;;13.30;12.20;;;;;;;18.02;86.43;98822.75;219844;1276;22591;-71
2022/07/01 20:38:37;;;;;;;12.30;11.20;;;;;;;18.03;86.27;98834.39;219868;1276;22548;-73
2022/07/01 20:43:40;;;;;;;14.50;13.00;;;;;;;18.04;86.39;98818.34;219755;1276;22548;-71
2022/07/01 20:48:44;;;;;;;14.80;13.40;;;;;;;18.03;86.59;98826.65;219923;1276;22630;-71
2022/07/01 20:53:46;;;;;;;12.80;11.70;;;;;;;18.00;86.78;98852.79;219840;1276;22598;-71
2022/07/01 20:58:50;;;;;;;12.60;11.30;;;;;;;17.95;86.82;98882.52;219780;1276;22643;-74
2022/07/01 21:03:52;;;;;;;12.10;11.00;;;;;;;17.92;86.62;98916.28;220052;1276;22542;-70
2022/07/01 21:08:55;;;;;;;12.90;11.80;;;;;;;17.94;86.52;98937.16;219870;1276;25463;-72
2022/07/01 21:14:14;;;;;;;11.60;10.60;;;;;;;17.92;86.05;98937.20;219884;1276;25290;-71
2022/07/01 21:19:28;;;;;;;10.90;9.90;;;;;;;17.89;85.61;98962.07;220014;1276;22590;-70
2022/07/01 21:24:31;;;;;;;12.00;10.90;;;;;;;17.83;85.48;98968.41;219815;1276;24298;-71
2022/07/01 21:29:34;;;;;;;8.60;7.80;;;;;;;17.74;85.33;98957.41;219712;1276;22712;-71
2022/07/01 21:34:36;;;;;;;8.50;7.60;;;;;;;17.61;85.16;98954.23;219030;1276;22611;-70
2022/07/01 21:39:40;;;;;;;7.80;7.00;;;;;;;17.50;85.20;98962.58;219206;1276;22572;-71
2022/07/01 21:44:44;;;;;;;7.80;7.10;;;;;;;17.40;85.21;98980.23;219851;1276;23949;-70
2022/07/01 21:49:47;;;;;;;7.00;6.30;;;;;;;17.33;85.00;98995.36;219868;1276;24232;-70
2022/07/01 21:55:13;;;;;;;6.90;6.30;;;;;;;17.31;84.95;99069.63;219820;1276;25113;-70
2022/07/01 22:00:45;;;;;;;6.50;5.90;;;;;;;17.31;84.83;99111.86;219798;1276;22557;-69
2022/07/01 22:11:39;;;;;;;6.40;5.80;;;;;;;17.24;84.35;99117.45;219177;1276;24304;-70
2022/07/01 22:16:46;;;;;;;6.20;5.70;;;;;;;17.21;84.41;99110.91;219042;1276;24388;-69
2022/07/01 22:21:59;;;;;;;6.60;5.40;;;;;;;17.17;84.29;99089.87;219140;1276;22734;-71
2022/07/01 22:27:09;;;;;;;5.70;5.00;;;;;;;17.15;84.07;99095.95;219132;1276;22543;-70
2022/07/01 22:32:39;;;;;;;5.80;4.60;;;;;;;17.13;84.05;99086.06;219201;1276;25268;-70
2022/07/01 22:37:42;;;;;;;5.30;4.80;;;;;;;17.10;83.90;99074.42;219157;1276;22553;-70
2022/07/01 22:42:53;;;;;;;5.00;4.50;;;;;;;17.09;83.80;99054.14;219366;1276;24332;-70
2022/07/01 22:48:04;;;;;;;5.50;4.50;;;;;;;17.06;83.70;99032.06;219471;1276;22560;-70
2022/07/01 22:53:16;;;;;;;6.00;4.20;;;;;;;17.04;83.45;99028.16;219565;1276;24363;-71
2022/07/01 22:58:45;;;;;;;4.90;4.10;;;;;;;16.99;83.34;99020.91;219958;1276;22703;-70
2022/07/01 23:03:49;;;;;;;5.20;4.20;;;;;;;16.95;83.31;98994.31;219754;1276;22628;-70
2022/07/01 23:09:25;;;;;;;5.30;4.50;;;;;;;16.95;83.35;98977.23;219307;1276;25359;-70
2022/07/01 23:19:55;;;;;;;4.90;4.40;;;;;;;16.94;83.40;98981.52;219054;1276;22567;-70
2022/07/01 23:24:59;;;;;;;5.80;4.80;;;;;;;16.90;83.29;98991.06;219205;1276;24365;-69
2022/07/01 23:30:12;;;;;;;6.60;4.90;;;;;;;16.84;83.24;98972.08;219304;1276;22604;-70
2022/07/01 23:35:59;;;;;;;6.90;5.10;;;;;;;16.76;83.27;98984.79;219203;1276;22633;-70
2022/07/01 23:41:27;;;;;;;;;;;;;;;;;;;;;
2022/07/01 23:46:33;;;;;;;9.70;8.70;;;;;;;16.72;83.98;98998.48;219278;1276;22561;-70
2022/07/01 23:52:45;;;;;;;6.00;5.40;;;;;;;16.74;84.11;99047.17;219193;1276;22611;-70
2022/07/01 23:58:13;;;;;;;9.30;4.90;;;;;;;16.73;83.98;99062.23;219456;1276;25345;-68
